createdAt,value
2018-06-20T00:00:10.811Z,7.10
2018-06-20T00:02:39.015Z,8.63
2018-06-20T00:05:07.601Z,8.03
2018-06-20T00:07:36.109Z,7.42
2018-06-20T00:10:04.321Z,7.37
2018-06-20T00:12:32.702Z,7.40
2018-06-20T00:15:00.908Z,7.90
2018-06-20T00:17:29.118Z,7.37
2018-06-20T00:19:57.932Z,7.50
2018-06-20T00:22:26.291Z,7.67
2018-06-20T00:24:54.803Z,7.60
2018-06-20T00:27:22.785Z,7.65
2018-06-20T00:29:50.784Z,8.05
2018-06-20T00:32:18.786Z,8.00
2018-06-20T00:34:47.166Z,7.80
2018-06-20T00:37:15.165Z,8.65
2018-06-20T00:39:43.248Z,7.90
2018-06-20T00:42:12.150Z,8.00
2018-06-20T00:44:40.683Z,8.40
2018-06-20T00:47:08.861Z,8.30
2018-06-20T00:49:37.343Z,8.95
2018-06-20T00:52:05.881Z,8.20
2018-06-20T00:54:34.257Z,7.70
2018-06-20T00:57:02.647Z,8.15
2018-06-20T00:59:31.457Z,8.60
2018-06-20T01:01:59.965Z,7.80
2018-06-20T01:04:28.247Z,8.33
2018-06-20T01:06:56.569Z,7.97
2018-06-20T01:09:24.787Z,8.60
2018-06-20T01:11:53.295Z,8.90
2018-06-20T01:14:21.564Z,8.43
2018-06-20T01:16:49.670Z,8.60
2018-06-20T01:19:17.974Z,8.80
2018-06-20T01:21:46.232Z,8.80
2018-06-20T01:24:14.651Z,8.15
2018-06-20T01:26:42.741Z,8.18
2018-06-20T01:29:11.145Z,8.23
2018-06-20T01:31:39.443Z,8.18
2018-06-20T01:34:07.732Z,9.10
2018-06-20T01:36:35.884Z,7.92
2018-06-20T01:39:06.293Z,9.50
2018-06-20T01:41:34.693Z,9.55
2018-06-20T01:44:03.393Z,8.00
2018-06-20T01:46:31.492Z,9.28
2018-06-20T01:48:59.790Z,8.25
2018-06-20T01:51:28.174Z,9.10
2018-06-20T01:53:56.148Z,8.60
2018-06-20T01:56:24.573Z,8.60
2018-06-20T01:58:53.149Z,9.20
2018-06-20T02:01:21.685Z,10.20
2018-06-20T02:03:49.980Z,9.60
2018-06-20T02:06:18.155Z,9.10
2018-06-20T02:08:46.477Z,9.40
2018-06-20T02:11:14.560Z,8.70
2018-06-20T02:13:42.563Z,8.98
2018-06-20T02:16:10.725Z,9.50
2018-06-20T02:18:38.736Z,10.63
2018-06-20T02:21:06.703Z,11.33
2018-06-20T02:23:34.909Z,9.00
2018-06-20T02:26:03.413Z,10.90
2018-06-20T02:28:31.705Z,9.63
2018-06-20T02:31:00.218Z,10.80
2018-06-20T02:33:28.310Z,9.18
2018-06-20T02:36:00.885Z,10.30
2018-06-20T02:38:29.305Z,10.00
2018-06-20T02:40:57.394Z,10.32
2018-06-20T02:43:25.472Z,9.80
2018-06-20T02:45:53.593Z,10.32
2018-06-20T02:48:21.689Z,10.00
2018-06-20T02:50:49.955Z,9.75
2018-06-20T02:53:18.269Z,10.07
2018-06-20T02:55:47.194Z,9.30
2018-06-20T02:58:15.591Z,9.00
2018-06-20T03:00:43.872Z,9.13
2018-06-20T03:03:11.884Z,9.60
2018-06-20T03:05:40.169Z,10.50
2018-06-20T03:08:08.450Z,9.70
2018-06-20T03:10:36.741Z,9.20
2018-06-20T03:13:05.171Z,9.67
2018-06-20T03:15:33.547Z,8.90
2018-06-20T03:18:02.145Z,10.58
2018-06-20T03:20:30.570Z,9.80
2018-06-20T03:22:58.935Z,10.48
2018-06-20T03:25:27.152Z,10.95
2018-06-20T03:27:55.901Z,10.25
2018-06-20T03:30:24.221Z,10.00
2018-06-20T03:32:52.568Z,10.25
2018-06-20T03:35:20.968Z,10.60
2018-06-20T03:37:49.267Z,11.48
2018-06-20T03:40:17.563Z,12.28
2018-06-20T03:42:45.635Z,12.23
2018-06-20T03:45:13.870Z,11.57
2018-06-20T03:47:42.151Z,11.78
2018-06-20T03:50:10.757Z,10.90
2018-06-20T03:52:39.235Z,10.58
2018-06-20T03:55:07.343Z,10.40
2018-06-20T03:57:35.918Z,9.95
2018-06-20T04:00:04.144Z,9.00
2018-06-20T04:02:32.083Z,9.53
2018-06-20T04:05:00.119Z,10.30
2018-06-20T04:07:28.101Z,9.80
2018-06-20T04:09:56.231Z,9.95
2018-06-20T04:12:24.607Z,10.30
2018-06-20T04:14:53.399Z,9.18
2018-06-20T04:17:21.790Z,9.78
2018-06-20T04:19:50.784Z,9.73
2018-06-20T04:22:19.118Z,9.25
2018-06-20T04:24:47.129Z,8.53
2018-06-20T04:27:15.511Z,7.40
2018-06-20T04:29:43.489Z,8.68
2018-06-20T04:32:11.895Z,8.28
2018-06-20T04:34:41.054Z,8.28
2018-06-20T04:37:09.301Z,7.90
2018-06-20T04:39:37.383Z,8.23
2018-06-20T04:42:05.690Z,7.63
2018-06-20T04:44:33.518Z,7.80
2018-06-20T04:47:01.572Z,8.58
2018-06-20T04:49:29.873Z,9.08
2018-06-20T04:51:57.857Z,9.50
2018-06-20T04:54:26.160Z,10.27
2018-06-20T04:56:54.680Z,9.53
2018-06-20T04:59:22.958Z,9.30
2018-06-20T05:01:51.376Z,9.10
2018-06-20T05:04:20.779Z,8.10
2018-06-20T05:06:49.075Z,8.20
2018-06-20T05:09:18.528Z,8.70
2018-06-20T05:11:47.821Z,8.70
2018-06-20T05:14:16.475Z,9.63
2018-06-20T05:16:44.743Z,8.10
2018-06-20T05:19:13.743Z,7.75
2018-06-20T05:21:42.778Z,8.10
2018-06-20T05:24:11.044Z,8.20
2018-06-20T05:26:39.671Z,8.35
2018-06-20T05:29:08.157Z,7.70
2018-06-20T05:31:36.262Z,8.30
2018-06-20T05:34:04.857Z,8.18
2018-06-20T05:36:32.939Z,8.60
2018-06-20T05:39:01.857Z,8.25
2018-06-20T05:41:30.068Z,9.10
2018-06-20T05:43:58.648Z,9.70
2018-06-20T05:46:26.876Z,8.30
2018-06-20T05:48:55.349Z,8.63
2018-06-20T05:51:23.326Z,7.60
2018-06-20T05:53:51.512Z,7.70
2018-06-20T05:56:19.735Z,6.87
2018-06-20T05:58:47.951Z,7.05
2018-06-20T06:01:16.336Z,6.70
2018-06-20T06:03:44.635Z,5.55
2018-06-20T06:06:14.665Z,4.70
2018-06-20T06:08:43.166Z,5.10
2018-06-20T06:11:11.126Z,5.67
2018-06-20T06:13:39.556Z,5.70
2018-06-20T06:16:07.768Z,5.60
2018-06-20T06:18:36.477Z,5.95
2018-06-20T06:21:05.367Z,5.15
2018-06-20T06:23:33.458Z,6.33
2018-06-20T06:26:01.770Z,6.40
2018-06-20T06:28:29.644Z,5.50
2018-06-20T06:30:57.850Z,5.75
2018-06-20T06:33:25.930Z,5.70
2018-06-20T06:35:54.447Z,6.20
2018-06-20T06:38:22.941Z,6.95
2018-06-20T06:40:51.016Z,6.00
2018-06-20T06:43:19.433Z,5.50
2018-06-20T06:45:48.232Z,4.90
2018-06-20T06:48:17.470Z,4.80
2018-06-20T06:50:45.833Z,4.30
2018-06-20T06:53:14.132Z,4.73
2018-06-20T06:55:42.563Z,4.78
2018-06-20T06:58:11.148Z,5.05
2018-06-20T07:00:39.777Z,5.00
2018-06-20T07:03:07.851Z,5.00
2018-06-20T07:05:35.648Z,4.50
2018-06-20T07:08:03.758Z,4.78
2018-06-20T07:10:32.170Z,4.50
2018-06-20T07:13:01.095Z,4.00
2018-06-20T07:15:29.561Z,4.00
2018-06-20T07:17:57.926Z,4.00
2018-06-20T07:20:26.055Z,4.58
2018-06-20T07:22:54.041Z,3.98
2018-06-20T07:25:22.231Z,4.10
2018-06-20T07:27:50.331Z,4.30
2018-06-20T07:30:18.420Z,4.30
2018-06-20T07:32:46.740Z,4.50
2018-06-20T07:35:15.003Z,4.67
2018-06-20T07:37:43.399Z,4.33
2018-06-20T07:40:11.826Z,3.87
2018-06-20T07:42:40.093Z,3.90
2018-06-20T07:45:08.269Z,3.60
2018-06-20T07:47:36.523Z,3.50
2018-06-20T07:50:04.735Z,3.85
2018-06-20T07:52:33.093Z,3.77
2018-06-20T07:55:01.064Z,4.77
2018-06-20T07:57:29.924Z,3.50
2018-06-20T08:00:03.643Z,3.70
2018-06-20T08:02:48.592Z,4.20
2018-06-20T08:05:22.158Z,4.15
2018-06-20T08:07:55.817Z,3.67
2018-06-20T08:11:32.294Z,3.90
2018-06-20T08:14:05.945Z,4.10
2018-06-20T08:16:39.819Z,4.00
2018-06-20T08:19:13.521Z,4.10
2018-06-20T08:21:41.874Z,4.00
2018-06-20T08:24:09.965Z,4.17
2018-06-20T08:26:37.956Z,4.87
2018-06-20T08:29:05.978Z,4.20
2018-06-20T08:31:34.197Z,4.70
2018-06-20T08:34:03.064Z,4.50
2018-06-20T08:36:31.338Z,4.58
2018-06-20T08:38:59.684Z,4.90
2018-06-20T08:41:27.937Z,5.10
2018-06-20T08:43:56.134Z,4.87
2018-06-20T08:46:23.937Z,5.15
2018-06-20T08:48:52.867Z,4.95
2018-06-20T08:51:21.226Z,4.80
2018-06-20T08:53:49.519Z,5.30
2018-06-20T08:56:17.847Z,4.67
2018-06-20T08:58:46.332Z,4.83
2018-06-20T09:01:14.539Z,4.97
2018-06-20T09:03:43.579Z,4.90
2018-06-20T09:06:17.209Z,4.40
2018-06-20T09:08:51.181Z,4.60
2018-06-20T09:11:24.860Z,5.17
2018-06-20T09:13:58.766Z,5.20
2018-06-20T09:16:32.379Z,5.20
2018-06-20T09:19:06.070Z,5.05
2018-06-20T09:21:34.186Z,5.08
2018-06-20T09:24:02.444Z,4.72
2018-06-20T09:26:30.428Z,5.70
2018-06-20T09:28:58.533Z,5.30
2018-06-20T09:31:26.728Z,4.80
2018-06-20T09:33:55.049Z,5.30
2018-06-20T09:36:23.429Z,5.50
2018-06-20T09:38:51.812Z,5.10
2018-06-20T09:41:19.800Z,5.53
2018-06-20T09:43:47.677Z,5.33
2018-06-20T09:46:15.886Z,5.70
2018-06-20T09:48:45.029Z,5.70
2018-06-20T09:51:13.402Z,5.40
2018-06-20T09:53:42.305Z,5.55
2018-06-20T09:56:10.839Z,4.83
2018-06-20T09:58:39.108Z,5.00
2018-06-20T10:01:12.906Z,4.78
2018-06-20T10:03:46.911Z,4.75
2018-06-20T10:06:20.572Z,4.42
2018-06-20T10:09:54.090Z,5.00
2018-06-20T10:13:29.796Z,4.80
2018-06-20T10:15:58.201Z,4.90
2018-06-20T10:18:27.286Z,5.10
2018-06-20T10:20:55.645Z,5.10
2018-06-20T10:23:24.566Z,4.70
2018-06-20T10:25:53.053Z,4.45
2018-06-20T10:28:21.420Z,4.33
2018-06-20T10:30:49.772Z,4.80
2018-06-20T10:33:19.155Z,4.85
2018-06-20T10:35:47.566Z,4.50
2018-06-20T10:38:15.662Z,5.20
2018-06-20T10:40:43.961Z,4.20
2018-06-20T10:43:11.937Z,3.90
2018-06-20T10:45:45.694Z,3.70
2018-06-20T10:48:15.344Z,4.20
2018-06-20T10:50:43.622Z,4.13
2018-06-20T10:53:12.003Z,4.55
2018-06-20T10:55:41.342Z,4.50
2018-06-20T10:58:15.186Z,4.10
2018-06-20T11:00:48.922Z,4.22
2018-06-20T11:03:22.777Z,4.60
2018-06-20T11:05:56.291Z,4.30
2018-06-20T11:08:31.248Z,4.22
2018-06-20T11:11:05.006Z,4.30
2018-06-20T11:13:33.667Z,4.80
2018-06-20T11:16:02.173Z,4.60
2018-06-20T11:18:31.409Z,4.25
2018-06-20T11:21:00.023Z,4.30
2018-06-20T11:23:28.492Z,4.30
2018-06-20T11:25:56.803Z,4.35
2018-06-20T11:28:25.161Z,5.12
2018-06-20T11:30:53.344Z,4.20
2018-06-20T11:33:22.068Z,4.22
2018-06-20T11:35:50.588Z,4.55
2018-06-20T11:38:19.087Z,4.75
2018-06-20T11:40:47.073Z,4.97
2018-06-20T11:43:15.483Z,4.40
2018-06-20T11:45:49.388Z,4.50
2018-06-20T11:48:18.315Z,4.75
2018-06-20T11:50:46.708Z,4.37
2018-06-20T11:53:14.888Z,4.53
2018-06-20T11:55:44.405Z,4.22
2018-06-20T11:58:18.020Z,4.77
2018-06-20T12:00:52.029Z,4.83
2018-06-20T12:03:25.779Z,4.60
2018-06-20T12:05:59.949Z,4.15
2018-06-20T12:08:33.824Z,5.00
2018-06-20T12:11:07.826Z,4.20
2018-06-20T12:13:41.512Z,4.78
2018-06-20T12:16:15.127Z,4.97
2018-06-20T12:18:49.298Z,4.85
2018-06-20T12:21:23.072Z,4.85
2018-06-20T12:23:57.007Z,4.90
2018-06-20T12:26:30.624Z,4.95
2018-06-20T12:29:04.321Z,4.95
2018-06-20T12:31:37.960Z,4.90
2018-06-20T12:34:11.671Z,4.80
2018-06-20T12:36:45.444Z,5.08
2018-06-20T12:39:13.720Z,5.10
2018-06-20T12:41:47.426Z,4.62
2018-06-20T12:44:21.034Z,4.70
2018-06-20T12:47:08.138Z,4.65
2018-06-20T12:49:39.011Z,5.30
2018-06-20T12:52:07.367Z,4.80
2018-06-20T12:54:36.365Z,5.00
2018-06-20T12:57:05.627Z,4.90
2018-06-20T12:59:33.880Z,6.15
2018-06-20T13:02:02.275Z,5.00
2018-06-20T13:04:30.407Z,5.00
2018-06-20T13:06:58.929Z,4.92
2018-06-20T13:09:27.785Z,5.10
2018-06-20T13:11:56.358Z,5.10
2018-06-20T13:14:24.693Z,5.15
2018-06-20T13:16:53.096Z,4.90
2018-06-20T13:19:21.597Z,4.50
2018-06-20T13:21:49.991Z,4.80
2018-06-20T13:24:18.179Z,4.92
2018-06-20T13:26:46.302Z,5.25
2018-06-20T13:29:20.306Z,5.00
2018-06-20T13:31:54.016Z,4.83
2018-06-20T13:34:27.439Z,4.90
2018-06-20T13:37:01.086Z,5.30
2018-06-20T13:39:34.731Z,5.10
2018-06-20T13:42:06.880Z,4.90
2018-06-20T13:44:35.106Z,5.20
2018-06-20T13:48:06.756Z,4.97
2018-06-20T13:50:35.255Z,6.05
2018-06-20T13:53:03.633Z,4.80
2018-06-20T13:55:31.820Z,4.85
2018-06-20T13:58:00.138Z,5.10
2018-06-20T14:00:28.470Z,5.30
2018-06-20T14:02:56.725Z,5.00
2018-06-20T14:05:25.047Z,4.83
2018-06-20T14:07:53.352Z,4.80
2018-06-20T14:10:21.623Z,5.00
2018-06-20T14:12:49.919Z,5.00
2018-06-20T14:15:17.998Z,4.62
2018-06-20T14:17:46.312Z,4.85
2018-06-20T14:20:20.068Z,5.00
2018-06-20T14:22:48.454Z,4.80
2018-06-20T14:25:17.351Z,4.95
2018-06-20T14:27:45.627Z,5.20
2018-06-20T14:30:18.235Z,5.70
2018-06-20T14:32:51.993Z,5.35
2018-06-20T14:35:25.987Z,5.30
2018-06-20T14:37:59.808Z,5.08
2018-06-20T14:41:32.532Z,5.00
2018-06-20T14:44:04.019Z,5.00
2018-06-20T14:46:32.436Z,5.10
2018-06-20T14:49:01.301Z,5.10
2018-06-20T14:51:30.303Z,5.40
2018-06-20T14:53:58.721Z,5.70
2018-06-20T14:56:27.225Z,5.30
2018-06-20T14:58:55.600Z,5.53
2018-06-20T15:01:24.752Z,5.83
2018-06-20T15:03:53.454Z,5.30
2018-06-20T15:06:22.052Z,5.80
2018-06-20T15:08:50.817Z,5.58
2018-06-20T15:11:19.335Z,4.87
2018-06-20T15:13:47.651Z,5.10
2018-06-20T15:16:21.367Z,4.70
2018-06-20T15:18:49.459Z,5.20
2018-06-20T15:21:17.762Z,5.83
2018-06-20T15:23:45.630Z,5.25
2018-06-20T15:26:19.346Z,5.80
2018-06-20T15:28:52.967Z,5.10
2018-06-20T15:31:26.570Z,5.80
2018-06-20T15:34:00.461Z,5.40
2018-06-20T15:36:34.125Z,5.30
2018-06-20T15:39:02.157Z,5.67
2018-06-20T15:41:30.982Z,5.20
2018-06-20T15:43:59.534Z,5.97
2018-06-20T15:46:27.501Z,5.80
2018-06-20T15:48:55.610Z,5.87
2018-06-20T15:51:23.826Z,5.75
2018-06-20T15:53:52.222Z,5.40
2018-06-20T15:56:20.623Z,5.90
2018-06-20T15:58:49.630Z,6.00
2018-06-20T16:01:18.037Z,5.92
2018-06-20T16:03:46.441Z,7.37
2018-06-20T16:06:14.727Z,6.12
2018-06-20T16:08:48.270Z,6.30
2018-06-20T16:11:16.618Z,6.05
2018-06-20T16:13:45.127Z,5.62
2018-06-20T16:16:13.235Z,5.97
2018-06-20T16:18:46.083Z,5.80
2018-06-20T16:21:20.059Z,5.97
2018-06-20T16:23:53.759Z,5.90
2018-06-20T16:26:27.481Z,6.00
2018-06-20T16:29:01.165Z,6.40
2018-06-20T16:31:29.475Z,6.45
2018-06-20T16:33:58.019Z,5.80
2018-06-20T16:36:26.344Z,5.97
2018-06-20T16:38:54.475Z,5.73
2018-06-20T16:41:23.109Z,5.60
2018-06-20T16:43:51.558Z,6.37
2018-06-20T16:46:19.805Z,5.62
2018-06-20T16:48:48.007Z,6.45
2018-06-20T16:51:16.262Z,6.87
2018-06-20T16:53:45.209Z,6.20
2018-06-20T16:56:13.768Z,7.17
2018-06-20T16:58:42.219Z,7.62
2018-06-20T17:01:16.031Z,7.03
2018-06-20T17:03:44.636Z,7.00
2018-06-20T17:06:12.831Z,7.17
2018-06-20T17:08:41.117Z,6.15
2018-06-20T17:11:09.101Z,6.57
2018-06-20T17:13:42.899Z,7.00
2018-06-20T17:16:16.738Z,6.43
2018-06-20T17:18:50.344Z,6.20
2018-06-20T17:21:24.827Z,6.60
2018-06-20T17:23:58.407Z,7.50
2018-06-20T17:26:26.839Z,6.10
2018-06-20T17:28:55.148Z,6.00
2018-06-20T17:31:23.448Z,5.90
2018-06-20T17:33:51.838Z,6.20
2018-06-20T17:36:20.080Z,6.20
2018-06-20T17:38:48.954Z,5.85
2018-06-20T17:41:17.979Z,6.00
2018-06-20T17:43:46.334Z,6.33
2018-06-20T17:46:15.122Z,6.47
2018-06-20T17:48:43.643Z,6.50
2018-06-20T17:51:11.742Z,6.50
2018-06-20T17:53:40.142Z,6.22
2018-06-20T17:56:08.729Z,5.63
2018-06-20T17:58:37.028Z,6.20
2018-06-20T18:01:09.799Z,7.40
2018-06-20T18:03:38.475Z,6.30
2018-06-20T18:06:12.283Z,6.28
2018-06-20T18:08:46.802Z,6.55
2018-06-20T18:11:16.992Z,6.30
2018-06-20T18:13:50.740Z,6.78
2018-06-20T18:16:24.527Z,7.00
2018-06-20T18:18:53.057Z,6.50
2018-06-20T18:21:21.584Z,6.90
2018-06-20T18:23:49.887Z,7.00
2018-06-20T18:26:18.260Z,6.72
2018-06-20T18:28:46.696Z,6.60
2018-06-20T18:31:14.879Z,6.62
2018-06-20T18:33:43.307Z,6.90
2018-06-20T18:36:11.657Z,7.00
2018-06-20T18:38:39.947Z,7.07
2018-06-20T18:41:09.347Z,7.92
2018-06-20T18:43:37.299Z,9.40
2018-06-20T18:46:05.916Z,7.40
2018-06-20T18:48:34.509Z,8.10
2018-06-20T18:51:03.982Z,8.28
2018-06-20T18:53:32.390Z,8.00
2018-06-20T18:56:00.744Z,7.83
2018-06-20T18:58:34.410Z,7.83
2018-06-20T19:01:08.328Z,8.00
2018-06-20T19:03:42.796Z,8.50
2018-06-20T19:06:16.570Z,8.60
2018-06-20T19:08:59.404Z,9.07
2018-06-20T19:11:27.622Z,8.50
2018-06-20T19:13:57.441Z,7.97
2018-06-20T19:16:25.637Z,8.78
2018-06-20T19:18:54.697Z,8.80
2018-06-20T19:21:23.990Z,9.13
2018-06-20T19:23:52.262Z,11.93
2018-06-20T19:26:20.665Z,8.85
2018-06-20T19:28:48.771Z,9.15
2018-06-20T19:31:17.177Z,9.60
2018-06-20T19:33:46.207Z,9.30
2018-06-20T19:36:14.699Z,9.45
2018-06-20T19:38:43.074Z,10.50
2018-06-20T19:41:11.490Z,13.08
2018-06-20T19:43:45.565Z,14.00
2018-06-20T19:46:14.524Z,11.22
2018-06-20T19:48:43.027Z,10.65
2018-06-20T19:51:11.778Z,10.30
2018-06-20T19:53:40.356Z,9.80
2018-06-20T19:56:08.611Z,9.60
2018-06-20T19:58:37.322Z,9.10
2018-06-20T20:01:06.239Z,10.20
2018-06-20T20:03:35.864Z,10.05
2018-06-20T20:06:04.367Z,9.93
2018-06-20T20:08:33.114Z,10.23
2018-06-20T20:11:01.179Z,10.03
2018-06-20T20:13:29.461Z,10.20
2018-06-20T20:15:57.629Z,10.63
2018-06-20T20:18:25.868Z,11.00
2018-06-20T20:20:54.888Z,10.03
2018-06-20T20:23:24.083Z,9.80
2018-06-20T20:25:52.242Z,9.50
2018-06-20T20:28:20.806Z,10.60
2018-06-20T20:30:49.079Z,9.55
2018-06-20T20:33:17.603Z,9.43
2018-06-20T20:35:46.010Z,9.30
2018-06-20T20:38:14.407Z,9.98
2018-06-20T20:40:42.996Z,9.90
2018-06-20T20:43:11.594Z,9.80
2018-06-20T20:45:40.502Z,9.80
2018-06-20T20:48:08.569Z,9.88
2018-06-20T20:50:39.051Z,9.63
2018-06-20T20:53:07.499Z,9.80
2018-06-20T20:55:36.069Z,9.80
2018-06-20T20:58:04.534Z,9.30
2018-06-20T21:00:32.860Z,9.75
2018-06-20T21:03:01.279Z,10.10
2018-06-20T21:05:29.652Z,10.40
2018-06-20T21:07:57.842Z,9.70
2018-06-20T21:10:25.925Z,9.70
2018-06-20T21:12:54.017Z,10.20
2018-06-20T21:15:22.739Z,9.80
2018-06-20T21:17:51.227Z,9.70
2018-06-20T21:20:20.052Z,9.68
2018-06-20T21:22:48.018Z,9.70
2018-06-20T21:25:16.416Z,10.60
2018-06-20T21:27:44.993Z,9.90
2018-06-20T21:30:13.447Z,10.32
2018-06-20T21:32:41.845Z,9.90
2018-06-20T21:35:10.435Z,10.10
2018-06-20T21:37:38.732Z,9.23
2018-06-20T21:40:11.005Z,9.45
2018-06-20T21:42:39.925Z,9.90
2018-06-20T21:45:08.206Z,9.40
2018-06-20T21:47:36.218Z,9.08
2018-06-20T21:50:05.181Z,9.60
2018-06-20T21:52:33.401Z,9.60
2018-06-20T21:55:02.359Z,9.43
2018-06-20T21:57:30.773Z,9.35
2018-06-20T21:59:59.126Z,9.00
2018-06-20T22:02:27.447Z,9.20
2018-06-20T22:04:55.827Z,8.45
2018-06-20T22:07:24.044Z,8.48
2018-06-20T22:09:52.532Z,9.00
2018-06-20T22:12:20.809Z,8.58
2018-06-20T22:14:49.182Z,9.25
2018-06-20T22:17:18.123Z,8.40
2018-06-20T22:19:46.420Z,8.90
2018-06-20T22:22:14.750Z,8.80
2018-06-20T22:24:42.838Z,8.98
2018-06-20T22:27:10.931Z,8.73
2018-06-20T22:29:39.214Z,8.30
2018-06-20T22:32:07.204Z,8.53
2018-06-20T22:34:35.526Z,8.50
2018-06-20T22:37:03.900Z,8.10
2018-06-20T22:39:32.364Z,8.20
2018-06-20T22:42:00.823Z,8.20
2018-06-20T22:44:29.293Z,8.58
2018-06-20T22:46:58.241Z,7.83
2018-06-20T22:49:26.524Z,7.80
2018-06-20T22:51:56.078Z,7.67
2018-06-20T22:54:24.458Z,8.20
2018-06-20T22:56:52.824Z,7.90
2018-06-20T22:59:21.870Z,8.05
2018-06-20T23:01:50.248Z,8.70
2018-06-20T23:04:18.361Z,8.40
2018-06-20T23:06:46.747Z,9.00
2018-06-20T23:09:15.057Z,8.13
2018-06-20T23:11:46.584Z,8.58
2018-06-20T23:14:15.005Z,8.40
2018-06-20T23:16:44.020Z,7.95
2018-06-20T23:19:12.452Z,8.48
2018-06-20T23:21:42.590Z,8.10
2018-06-20T23:24:10.679Z,8.70
2018-06-20T23:26:39.380Z,8.35
2018-06-20T23:29:07.559Z,7.77
2018-06-20T23:31:35.662Z,7.55
2018-06-20T23:34:03.828Z,8.10
2018-06-20T23:36:32.796Z,8.48
2018-06-20T23:39:01.164Z,8.60
2018-06-20T23:41:29.043Z,8.25
2018-06-20T23:43:57.156Z,8.85
2018-06-20T23:46:25.656Z,8.13
2018-06-20T23:48:53.944Z,8.50
2018-06-20T23:51:22.036Z,8.40
2018-06-20T23:53:50.427Z,8.35
2018-06-20T23:56:18.537Z,8.55
2018-06-20T23:58:46.936Z,8.90
